createdAt,value
2018-05-17T00:00:45.513Z,0.00
2018-05-17T00:01:45.455Z,0.00
2018-05-17T00:02:45.399Z,0.00
2018-05-17T00:03:45.342Z,0.00
2018-05-17T00:04:45.284Z,0.00
2018-05-17T00:05:45.228Z,0.00
2018-05-17T00:06:45.175Z,0.00
2018-05-17T00:07:45.113Z,0.00
2018-05-17T00:08:45.063Z,0.00
2018-05-17T00:09:44.998Z,0.00
2018-05-17T00:10:44.942Z,0.00
2018-05-17T00:11:44.885Z,0.00
2018-05-17T00:12:44.836Z,0.00
2018-05-17T00:13:44.773Z,0.00
2018-05-17T00:14:44.719Z,0.00
2018-05-17T00:15:44.658Z,0.00
2018-05-17T00:16:44.602Z,0.00
2018-05-17T00:17:44.542Z,0.00
2018-05-17T00:18:44.486Z,0.00
2018-05-17T00:19:44.430Z,0.00
2018-05-17T00:20:44.373Z,0.00
2018-05-17T00:21:44.313Z,0.00
2018-05-17T00:22:44.260Z,0.00
2018-05-17T00:23:44.202Z,0.00
2018-05-17T00:24:44.144Z,0.00
2018-05-17T00:25:44.087Z,0.00
2018-05-17T00:26:44.035Z,0.00
2018-05-17T00:27:43.975Z,0.00
2018-05-17T00:28:43.918Z,0.00
2018-05-17T00:29:43.862Z,0.00
2018-05-17T00:30:43.806Z,0.00
2018-05-17T00:31:43.745Z,0.00
2018-05-17T00:32:43.708Z,0.00
2018-05-17T00:33:43.635Z,0.00
2018-05-17T00:34:43.574Z,0.00
2018-05-17T00:35:43.577Z,0.00
2018-05-17T00:36:43.461Z,0.00
2018-05-17T00:37:43.407Z,0.00
2018-05-17T00:38:43.348Z,0.00
2018-05-17T00:39:43.291Z,0.00
2018-05-17T00:40:43.234Z,0.00
2018-05-17T00:41:43.176Z,0.00
2018-05-17T00:42:43.119Z,0.00
2018-05-17T00:43:43.064Z,0.00
2018-05-17T00:44:43.009Z,0.00
2018-05-17T00:45:42.949Z,0.00
2018-05-17T00:46:42.891Z,0.00
2018-05-17T00:47:42.834Z,0.00
2018-05-17T00:48:42.777Z,0.00
2018-05-17T00:49:42.720Z,0.00
2018-05-17T00:50:42.663Z,0.00
2018-05-17T00:51:42.607Z,0.00
2018-05-17T00:52:42.553Z,0.00
2018-05-17T00:53:42.491Z,0.00
2018-05-17T00:54:42.435Z,0.00
2018-05-17T00:55:42.377Z,0.00
2018-05-17T00:56:42.321Z,0.00
2018-05-17T00:57:42.266Z,0.00
2018-05-17T00:58:42.207Z,0.00
2018-05-17T00:59:42.149Z,0.00
2018-05-17T01:00:42.094Z,0.00
2018-05-17T01:01:42.037Z,0.00
2018-05-17T01:02:41.981Z,0.00
2018-05-17T01:03:41.923Z,0.00
2018-05-17T01:04:41.866Z,0.00
2018-05-17T01:05:41.851Z,0.00
2018-05-17T01:06:41.755Z,0.00
2018-05-17T01:07:41.702Z,0.00
2018-05-17T01:08:41.638Z,0.00
2018-05-17T01:09:41.580Z,0.00
2018-05-17T01:10:41.524Z,0.00
2018-05-17T01:11:41.469Z,0.00
2018-05-17T01:12:41.416Z,0.00
2018-05-17T01:13:41.355Z,0.00
2018-05-17T01:14:41.299Z,0.00
2018-05-17T01:15:41.241Z,0.00
2018-05-17T01:16:41.215Z,0.00
2018-05-17T01:17:41.127Z,0.00
2018-05-17T01:18:41.070Z,0.00
2018-05-17T01:19:41.015Z,0.00
2018-05-17T01:20:40.957Z,0.00
2018-05-17T01:21:40.902Z,0.00
2018-05-17T01:22:40.843Z,0.00
2018-05-17T01:23:41.401Z,0.00
2018-05-17T01:24:40.730Z,0.00
2018-05-17T01:25:40.672Z,0.00
2018-05-17T01:26:40.618Z,0.00
2018-05-17T01:27:40.561Z,0.00
2018-05-17T01:28:40.643Z,0.00
2018-05-17T01:29:40.480Z,0.00
2018-05-17T01:30:40.626Z,0.00
2018-05-17T01:31:40.340Z,0.00
2018-05-17T01:32:40.609Z,0.00
2018-05-17T01:33:40.236Z,0.00
2018-05-17T01:34:40.163Z,0.00
2018-05-17T01:35:40.111Z,0.00
2018-05-17T01:36:40.052Z,0.00
2018-05-17T01:37:39.994Z,0.00
2018-05-17T01:38:39.941Z,0.00
2018-05-17T01:39:39.882Z,0.00
2018-05-17T01:40:39.826Z,0.00
2018-05-17T01:41:39.768Z,0.00
2018-05-17T01:42:39.713Z,0.00
2018-05-17T01:43:39.656Z,0.00
2018-05-17T01:44:39.599Z,0.00
2018-05-17T01:45:39.543Z,0.00
2018-05-17T01:46:39.486Z,0.00
2018-05-17T01:47:39.430Z,0.00
2018-05-17T01:48:39.376Z,0.00
2018-05-17T01:49:39.319Z,0.00
2018-05-17T01:50:39.260Z,0.00
2018-05-17T01:51:39.203Z,0.00
2018-05-17T01:52:39.146Z,0.00
2018-05-17T01:53:39.090Z,0.00
2018-05-17T01:54:39.034Z,0.00
2018-05-17T01:55:38.977Z,0.00
2018-05-17T01:56:38.923Z,0.00
2018-05-17T01:57:38.864Z,0.00
2018-05-17T01:58:38.806Z,0.00
2018-05-17T01:59:38.751Z,0.00
2018-05-17T02:00:38.695Z,0.00
2018-05-17T02:01:38.639Z,0.00
2018-05-17T02:02:38.584Z,0.00
2018-05-17T02:03:38.524Z,0.00
2018-05-17T02:04:38.471Z,0.00
2018-05-17T02:05:38.411Z,0.00
2018-05-17T02:06:38.355Z,0.00
2018-05-17T02:07:38.303Z,0.00
2018-05-17T02:08:38.243Z,0.00
2018-05-17T02:09:38.185Z,0.00
2018-05-17T02:10:38.131Z,0.00
2018-05-17T02:11:38.074Z,0.00
2018-05-17T02:12:38.018Z,0.00
2018-05-17T02:13:37.961Z,0.00
2018-05-17T02:14:37.977Z,0.00
2018-05-17T02:15:37.848Z,0.00
2018-05-17T02:16:37.792Z,0.00
2018-05-17T02:17:37.734Z,0.00
2018-05-17T02:18:37.678Z,0.00
2018-05-17T02:19:37.624Z,0.00
2018-05-17T02:20:37.567Z,0.00
2018-05-17T02:21:37.510Z,0.00
2018-05-17T02:22:37.454Z,0.00
2018-05-17T02:23:37.399Z,0.00
2018-05-17T02:24:37.344Z,0.00
2018-05-17T02:25:37.286Z,0.00
2018-05-17T02:26:37.231Z,0.00
2018-05-17T02:27:37.174Z,0.00
2018-05-17T02:28:37.119Z,0.00
2018-05-17T02:29:37.059Z,0.00
2018-05-17T02:30:37.004Z,0.00
2018-05-17T02:31:36.949Z,0.00
2018-05-17T02:32:36.893Z,0.00
2018-05-17T02:33:36.837Z,0.00
2018-05-17T02:34:36.783Z,0.00
2018-05-17T02:35:36.724Z,0.00
2018-05-17T02:36:36.669Z,0.00
2018-05-17T02:37:36.613Z,0.00
2018-05-17T02:38:36.554Z,0.00
2018-05-17T02:39:36.501Z,0.00
2018-05-17T02:40:36.445Z,0.00
2018-05-17T02:41:36.388Z,0.00
2018-05-17T02:42:36.335Z,0.00
2018-05-17T02:43:36.275Z,0.00
2018-05-17T02:44:36.220Z,0.00
2018-05-17T02:45:36.162Z,0.00
2018-05-17T02:46:36.107Z,0.00
2018-05-17T02:47:36.053Z,0.00
2018-05-17T02:48:35.997Z,0.00
2018-05-17T02:49:35.939Z,0.00
2018-05-17T02:50:35.884Z,0.00
2018-05-17T02:51:35.833Z,0.00
2018-05-17T02:52:35.771Z,0.00
2018-05-17T02:53:35.720Z,0.00
2018-05-17T02:54:35.659Z,0.00
2018-05-17T02:55:35.604Z,0.00
2018-05-17T02:56:35.555Z,0.00
2018-05-17T02:57:35.490Z,0.00
2018-05-17T02:58:35.435Z,0.00
2018-05-17T02:59:35.379Z,0.00
2018-05-17T03:00:35.327Z,0.00
2018-05-17T03:01:35.268Z,0.00
2018-05-17T03:02:35.216Z,0.00
2018-05-17T03:03:35.155Z,0.00
2018-05-17T03:04:35.108Z,0.00
2018-05-17T03:05:35.042Z,0.00
2018-05-17T03:06:34.989Z,0.00
2018-05-17T03:07:34.935Z,0.00
2018-05-17T03:08:34.874Z,0.00
2018-05-17T03:09:34.819Z,0.00
2018-05-17T03:10:34.764Z,0.00
2018-05-17T03:11:34.717Z,0.00
2018-05-17T03:12:34.652Z,0.00
2018-05-17T03:13:34.595Z,0.00
2018-05-17T03:14:34.538Z,0.00
2018-05-17T03:15:34.480Z,0.00
2018-05-17T03:16:34.426Z,0.00
2018-05-17T03:17:34.371Z,0.00
2018-05-17T03:18:34.313Z,0.00
2018-05-17T03:19:34.258Z,0.00
2018-05-17T03:20:34.201Z,0.00
2018-05-17T03:21:34.144Z,0.00
2018-05-17T03:22:34.090Z,0.00
2018-05-17T03:23:34.032Z,0.00
2018-05-17T03:24:33.976Z,0.00
2018-05-17T03:25:33.919Z,0.00
2018-05-17T03:26:33.866Z,0.00
2018-05-17T03:27:33.807Z,0.00
2018-05-17T03:28:33.753Z,0.00
2018-05-17T03:29:33.696Z,0.00
2018-05-17T03:30:33.640Z,0.00
2018-05-17T03:31:33.583Z,0.00
2018-05-17T03:32:33.530Z,0.00
2018-05-17T03:33:33.471Z,0.00
2018-05-17T03:34:33.414Z,0.00
2018-05-17T03:35:33.359Z,0.00
2018-05-17T03:36:33.303Z,0.00
2018-05-17T03:37:33.246Z,0.00
2018-05-17T03:38:33.190Z,0.00
2018-05-17T03:39:33.133Z,0.00
2018-05-17T03:40:33.079Z,0.00
2018-05-17T03:41:33.021Z,0.00
2018-05-17T03:42:32.966Z,0.00
2018-05-17T03:43:32.911Z,0.00
2018-05-17T03:44:32.875Z,0.00
2018-05-17T03:45:32.799Z,0.00
2018-05-17T03:46:32.744Z,0.00
2018-05-17T03:47:32.686Z,0.00
2018-05-17T03:48:32.633Z,0.00
2018-05-17T03:49:32.573Z,0.00
2018-05-17T03:50:32.518Z,0.00
2018-05-17T03:51:32.462Z,0.00
2018-05-17T03:52:32.409Z,0.00
2018-05-17T03:53:32.353Z,0.00
2018-05-17T03:54:32.294Z,0.00
2018-05-17T03:55:32.238Z,0.00
2018-05-17T03:56:32.181Z,0.00
2018-05-17T03:57:32.126Z,0.00
2018-05-17T03:58:32.072Z,0.00
2018-05-17T03:59:32.015Z,0.00
2018-05-17T04:00:31.959Z,0.00
2018-05-17T04:01:31.901Z,0.00
2018-05-17T04:02:31.846Z,0.00
2018-05-17T04:03:31.790Z,0.00
2018-05-17T04:04:31.734Z,0.00
2018-05-17T04:05:31.680Z,0.00
2018-05-17T04:06:31.624Z,0.00
2018-05-17T04:07:31.566Z,0.00
2018-05-17T04:08:31.596Z,0.00
2018-05-17T04:09:31.452Z,0.00
2018-05-17T04:10:31.396Z,0.00
2018-05-17T04:11:31.347Z,0.00
2018-05-17T04:12:31.285Z,0.00
2018-05-17T04:13:31.229Z,0.00
2018-05-17T04:14:31.172Z,0.00
2018-05-17T04:15:31.116Z,0.00
2018-05-17T04:16:31.061Z,0.00
2018-05-17T04:17:31.005Z,5.63
2018-05-17T04:18:30.950Z,5.63
2018-05-17T04:19:30.892Z,5.63
2018-05-17T04:20:30.836Z,5.63
2018-05-17T04:21:30.778Z,5.63
2018-05-17T04:22:30.725Z,5.63
2018-05-17T04:23:30.670Z,5.63
2018-05-17T04:24:30.617Z,5.63
2018-05-17T04:25:30.556Z,5.63
2018-05-17T04:26:30.499Z,5.63
2018-05-17T04:27:30.443Z,5.63
2018-05-17T04:28:30.394Z,5.63
2018-05-17T04:29:30.334Z,0.00
2018-05-17T04:30:30.275Z,0.00
2018-05-17T04:31:30.219Z,0.00
2018-05-17T04:32:30.163Z,0.00
2018-05-17T04:33:30.106Z,0.00
2018-05-17T04:34:30.052Z,0.00
2018-05-17T04:35:29.997Z,0.00
2018-05-17T04:36:29.940Z,0.00
2018-05-17T04:37:29.885Z,0.00
2018-05-17T04:38:29.828Z,0.00
2018-05-17T04:39:29.772Z,0.00
2018-05-17T04:40:29.721Z,0.00
2018-05-17T04:41:29.658Z,0.00
2018-05-17T04:42:29.604Z,0.00
2018-05-17T04:43:29.549Z,0.00
2018-05-17T04:44:29.494Z,0.00
2018-05-17T04:45:29.434Z,0.00
2018-05-17T04:46:29.379Z,0.00
2018-05-17T04:47:29.324Z,0.00
2018-05-17T04:48:29.267Z,0.00
2018-05-17T04:49:29.210Z,0.00
2018-05-17T04:50:29.156Z,0.00
2018-05-17T04:51:29.099Z,0.00
2018-05-17T04:52:29.043Z,0.00
2018-05-17T04:53:28.991Z,0.00
2018-05-17T04:54:28.932Z,0.00
2018-05-17T04:55:28.876Z,0.00
2018-05-17T04:56:28.820Z,0.00
2018-05-17T04:57:28.768Z,0.00
2018-05-17T04:58:28.707Z,0.00
2018-05-17T04:59:28.652Z,0.00
2018-05-17T05:00:28.596Z,0.00
2018-05-17T05:01:28.540Z,0.00
2018-05-17T05:02:28.482Z,0.00
2018-05-17T05:03:28.429Z,5.63
2018-05-17T05:04:28.371Z,5.63
2018-05-17T05:05:28.314Z,5.63
2018-05-17T05:06:28.267Z,5.63
2018-05-17T05:07:28.201Z,5.63
2018-05-17T05:08:28.146Z,5.63
2018-05-17T05:09:28.141Z,5.63
2018-05-17T05:10:28.033Z,5.63
2018-05-17T05:11:27.978Z,5.63
2018-05-17T05:12:27.923Z,0.00
2018-05-17T05:13:27.864Z,0.00
2018-05-17T05:14:27.812Z,0.00
2018-05-17T05:15:27.752Z,0.00
2018-05-17T05:16:27.700Z,0.00
2018-05-17T05:17:27.642Z,0.00
2018-05-17T05:18:27.585Z,0.00
2018-05-17T05:19:27.529Z,0.00
2018-05-17T05:20:27.473Z,0.00
2018-05-17T05:21:27.416Z,0.00
2018-05-17T05:22:27.360Z,0.00
2018-05-17T05:23:27.307Z,0.00
2018-05-17T05:24:27.249Z,0.00
2018-05-17T05:25:27.195Z,0.00
2018-05-17T05:26:27.137Z,0.00
2018-05-17T05:27:27.088Z,5.63
2018-05-17T05:28:27.026Z,0.00
2018-05-17T05:29:26.971Z,0.00
2018-05-17T05:30:26.915Z,0.00
2018-05-17T05:31:26.859Z,0.00
2018-05-17T05:32:26.802Z,0.00
2018-05-17T05:33:26.744Z,0.00
2018-05-17T05:34:26.690Z,0.00
2018-05-17T05:35:26.634Z,0.00
2018-05-17T05:36:26.579Z,0.00
2018-05-17T05:37:26.535Z,0.00
2018-05-17T05:38:26.473Z,5.63
2018-05-17T05:39:26.409Z,5.63
2018-05-17T05:40:26.379Z,5.63
2018-05-17T05:41:26.297Z,5.63
2018-05-17T05:42:26.241Z,5.63
2018-05-17T05:43:26.187Z,5.63
2018-05-17T05:44:26.130Z,5.63
2018-05-17T05:45:26.073Z,5.63
2018-05-17T05:46:26.018Z,5.63
2018-05-17T05:47:25.963Z,5.63
2018-05-17T05:48:25.909Z,5.63
2018-05-17T05:49:25.915Z,11.25
2018-05-17T05:50:25.794Z,11.25
2018-05-17T05:51:25.741Z,11.25
2018-05-17T05:52:25.681Z,11.25
2018-05-17T05:53:25.628Z,11.25
2018-05-17T05:54:25.570Z,16.88
2018-05-17T05:55:25.515Z,16.88
2018-05-17T05:56:25.465Z,22.50
2018-05-17T05:57:25.403Z,28.13
2018-05-17T05:58:25.348Z,33.75
2018-05-17T05:59:25.298Z,28.13
2018-05-17T06:00:25.240Z,33.75
2018-05-17T06:01:25.188Z,28.13
2018-05-17T06:02:25.221Z,33.75
2018-05-17T06:03:25.133Z,39.38
2018-05-17T06:04:25.013Z,39.38
2018-05-17T06:05:24.959Z,45.00
2018-05-17T06:06:24.902Z,39.38
2018-05-17T06:07:24.848Z,39.38
2018-05-17T06:08:24.865Z,39.38
2018-05-17T06:09:24.733Z,39.38
2018-05-17T06:10:24.678Z,39.38
2018-05-17T06:11:24.622Z,28.13
2018-05-17T06:12:24.568Z,28.13
2018-05-17T06:13:24.512Z,22.50
2018-05-17T06:14:24.455Z,22.50
2018-05-17T06:15:24.400Z,22.50
2018-05-17T06:16:24.344Z,22.50
2018-05-17T06:17:24.376Z,22.50
2018-05-17T06:18:24.234Z,22.50
2018-05-17T06:19:24.179Z,22.50
2018-05-17T06:20:24.121Z,16.88
2018-05-17T06:21:24.067Z,16.88
2018-05-17T06:22:24.009Z,16.88
2018-05-17T06:23:23.954Z,11.25
2018-05-17T06:24:23.898Z,11.25
2018-05-17T06:25:23.841Z,11.25
2018-05-17T06:26:23.785Z,11.25
2018-05-17T06:27:23.730Z,11.25
2018-05-17T06:28:23.676Z,11.25
2018-05-17T06:29:23.619Z,11.25
2018-05-17T06:30:23.566Z,11.25
2018-05-17T06:31:23.507Z,11.25
2018-05-17T06:32:23.452Z,11.25
2018-05-17T06:33:23.396Z,16.88
2018-05-17T06:34:23.339Z,16.88
2018-05-17T06:35:23.284Z,16.88
2018-05-17T06:36:23.229Z,11.25
2018-05-17T06:37:23.173Z,16.88
2018-05-17T06:38:23.118Z,16.88
2018-05-17T06:39:23.061Z,16.88
2018-05-17T06:40:23.007Z,16.88
2018-05-17T06:41:22.950Z,16.88
2018-05-17T06:42:22.893Z,16.88
2018-05-17T06:43:22.838Z,11.25
2018-05-17T06:44:22.782Z,11.25
2018-05-17T06:45:22.726Z,11.25
2018-05-17T06:46:22.671Z,11.25
2018-05-17T06:47:22.622Z,11.25
2018-05-17T06:48:22.560Z,11.25
2018-05-17T06:49:22.502Z,11.25
2018-05-17T06:50:22.447Z,11.25
2018-05-17T06:51:22.391Z,11.25
2018-05-17T06:52:22.336Z,11.25
2018-05-17T06:53:22.279Z,11.25
2018-05-17T06:54:22.226Z,11.25
2018-05-17T06:55:22.168Z,11.25
2018-05-17T06:56:22.113Z,11.25
2018-05-17T06:57:22.056Z,11.25
2018-05-17T06:58:22.006Z,11.25
2018-05-17T06:59:21.945Z,11.25
2018-05-17T07:00:21.889Z,11.25
2018-05-17T07:01:21.834Z,11.25
2018-05-17T07:02:21.782Z,11.25
2018-05-17T07:03:21.722Z,11.25
2018-05-17T07:04:21.669Z,11.25
2018-05-17T07:05:21.611Z,11.25
2018-05-17T07:06:21.577Z,16.88
2018-05-17T07:07:21.501Z,16.88
2018-05-17T07:08:21.447Z,16.88
2018-05-17T07:09:21.389Z,16.88
2018-05-17T07:10:21.331Z,16.88
2018-05-17T07:11:21.276Z,11.25
2018-05-17T07:12:21.222Z,11.25
2018-05-17T07:13:21.164Z,11.25
2018-05-17T07:14:21.108Z,5.63
2018-05-17T07:15:21.057Z,11.25
2018-05-17T07:16:21.044Z,11.25
2018-05-17T07:17:20.941Z,11.25
2018-05-17T07:18:21.082Z,11.25
2018-05-17T07:19:20.830Z,11.25
2018-05-17T07:20:20.775Z,11.25
2018-05-17T07:21:20.720Z,11.25
2018-05-17T07:22:20.665Z,11.25
2018-05-17T07:23:20.605Z,11.25
2018-05-17T07:24:20.551Z,5.63
2018-05-17T07:25:20.497Z,11.25
2018-05-17T07:26:20.440Z,11.25
2018-05-17T07:27:20.384Z,11.25
2018-05-17T07:28:20.329Z,11.25
2018-05-17T07:29:20.269Z,5.63
2018-05-17T07:30:20.216Z,5.63
2018-05-17T07:31:20.167Z,5.63
2018-05-17T07:32:20.104Z,5.63
2018-05-17T07:33:20.050Z,5.63
2018-05-17T07:34:20.017Z,5.63
2018-05-17T07:35:19.936Z,5.63
2018-05-17T07:36:19.883Z,11.25
2018-05-17T07:37:19.823Z,11.25
2018-05-17T07:38:19.770Z,11.25
2018-05-17T07:39:19.796Z,11.25
2018-05-17T07:40:19.659Z,11.25
2018-05-17T07:41:19.607Z,11.25
2018-05-17T07:42:19.543Z,11.25
2018-05-17T07:43:19.487Z,11.25
2018-05-17T07:44:19.432Z,11.25
2018-05-17T07:45:19.374Z,11.25
2018-05-17T07:46:19.332Z,16.88
2018-05-17T07:47:19.287Z,22.50
2018-05-17T07:48:19.207Z,28.13
2018-05-17T07:49:19.151Z,28.13
2018-05-17T07:50:19.096Z,22.50
2018-05-17T07:51:19.039Z,22.50
2018-05-17T07:52:18.985Z,22.50
2018-05-17T07:53:18.930Z,22.50
2018-05-17T07:54:18.871Z,16.88
2018-05-17T07:55:18.815Z,16.88
2018-05-17T07:56:18.760Z,16.88
2018-05-17T07:57:18.702Z,16.88
2018-05-17T07:58:18.648Z,16.88
2018-05-17T07:59:18.594Z,16.88
2018-05-17T08:00:18.535Z,16.88
2018-05-17T08:01:18.478Z,16.88
2018-05-17T08:02:18.423Z,16.88
2018-05-17T08:03:18.368Z,16.88
2018-05-17T08:04:18.312Z,16.88
2018-05-17T08:05:18.254Z,16.88
2018-05-17T08:06:18.200Z,16.88
2018-05-17T08:07:18.143Z,16.88
2018-05-17T08:08:18.088Z,11.25
2018-05-17T08:09:18.096Z,11.25
2018-05-17T08:10:17.975Z,16.88
2018-05-17T08:11:17.919Z,11.25
2018-05-17T08:12:17.867Z,11.25
2018-05-17T08:13:17.808Z,16.88
2018-05-17T08:14:17.754Z,16.88
2018-05-17T08:15:17.701Z,16.88
2018-05-17T08:16:17.642Z,11.25
2018-05-17T08:17:17.586Z,16.88
2018-05-17T08:18:17.529Z,11.25
2018-05-17T08:19:17.473Z,5.63
2018-05-17T08:20:17.417Z,11.25
2018-05-17T08:21:17.363Z,5.63
2018-05-17T08:22:17.305Z,5.63
2018-05-17T08:23:17.249Z,11.25
2018-05-17T08:24:17.192Z,11.25
2018-05-17T08:25:17.137Z,11.25
2018-05-17T08:26:17.082Z,11.25
2018-05-17T08:27:17.024Z,11.25
2018-05-17T08:28:16.973Z,16.88
2018-05-17T08:29:16.912Z,16.88
2018-05-17T08:30:16.857Z,22.50
2018-05-17T08:31:16.801Z,22.50
2018-05-17T08:32:16.745Z,22.50
2018-05-17T08:33:16.689Z,28.13
2018-05-17T08:34:16.634Z,28.13
2018-05-17T08:35:16.576Z,22.50
2018-05-17T08:36:16.605Z,22.50
2018-05-17T08:37:16.465Z,22.50
2018-05-17T08:38:16.407Z,22.50
2018-05-17T08:39:16.353Z,22.50
2018-05-17T08:40:16.296Z,22.50
2018-05-17T08:41:16.239Z,22.50
2018-05-17T08:42:16.183Z,22.50
2018-05-17T08:43:16.127Z,28.13
2018-05-17T08:44:16.071Z,28.13
2018-05-17T08:45:16.015Z,28.13
2018-05-17T08:46:15.959Z,28.13
2018-05-17T08:47:15.904Z,28.13
2018-05-17T08:48:15.847Z,33.75
2018-05-17T08:49:15.790Z,33.75
2018-05-17T08:50:15.735Z,33.75
2018-05-17T08:51:15.679Z,33.75
2018-05-17T08:52:15.623Z,39.38
2018-05-17T08:53:15.566Z,33.75
2018-05-17T08:54:15.578Z,33.75
2018-05-17T08:55:15.454Z,22.50
2018-05-17T08:56:15.399Z,22.50
2018-05-17T08:57:15.343Z,22.50
2018-05-17T08:58:15.288Z,28.13
2018-05-17T08:59:15.233Z,28.13
2018-05-17T09:00:15.176Z,33.75
2018-05-17T09:01:15.118Z,33.75
2018-05-17T09:02:15.063Z,39.38
2018-05-17T09:03:15.007Z,39.38
2018-05-17T09:04:14.952Z,39.38
2018-05-17T09:05:14.893Z,39.38
2018-05-17T09:06:14.882Z,39.38
2018-05-17T09:07:14.788Z,39.38
2018-05-17T09:08:14.730Z,39.38
2018-05-17T09:09:14.669Z,39.38
2018-05-17T09:10:14.614Z,39.38
2018-05-17T09:11:14.557Z,45.00
2018-05-17T09:12:14.502Z,45.00
2018-05-17T09:13:14.447Z,45.00
2018-05-17T09:14:14.392Z,39.38
2018-05-17T09:15:14.335Z,39.38
2018-05-17T09:16:14.283Z,39.38
2018-05-17T09:17:14.223Z,45.00
2018-05-17T09:18:14.200Z,45.00
2018-05-17T09:19:14.111Z,50.63
2018-05-17T09:20:14.067Z,50.63
2018-05-17T09:21:14.000Z,50.63
2018-05-17T09:22:13.944Z,50.63
2018-05-17T09:23:13.889Z,50.63
2018-05-17T09:24:13.834Z,50.63
2018-05-17T09:25:13.775Z,45.00
2018-05-17T09:26:13.723Z,50.63
2018-05-17T09:27:13.667Z,45.00
2018-05-17T09:28:13.609Z,45.00
2018-05-17T09:29:13.578Z,45.00
2018-05-17T09:30:13.498Z,45.00
2018-05-17T09:31:13.441Z,45.00
2018-05-17T09:32:13.388Z,39.38
2018-05-17T09:33:13.333Z,45.00
2018-05-17T09:34:13.273Z,39.38
2018-05-17T09:35:13.219Z,45.00
2018-05-17T09:36:13.162Z,45.00
2018-05-17T09:37:13.105Z,39.38
2018-05-17T09:38:13.051Z,33.75
2018-05-17T09:39:12.995Z,33.75
2018-05-17T09:40:12.939Z,33.75
2018-05-17T09:41:12.894Z,39.38
2018-05-17T09:42:12.828Z,50.63
2018-05-17T09:43:12.772Z,50.63
2018-05-17T09:44:12.718Z,50.63
2018-05-17T09:45:12.659Z,50.63
2018-05-17T09:46:12.604Z,45.00
2018-05-17T09:47:12.548Z,45.00
2018-05-17T09:48:12.491Z,45.00
2018-05-17T09:49:12.437Z,45.00
2018-05-17T09:50:12.381Z,45.00
2018-05-17T09:51:12.325Z,45.00
2018-05-17T09:52:12.271Z,39.38
2018-05-17T09:53:12.213Z,39.38
2018-05-17T09:54:12.160Z,33.75
2018-05-17T09:55:12.112Z,28.13
2018-05-17T09:56:12.047Z,22.50
2018-05-17T09:57:11.993Z,22.50
2018-05-17T09:58:11.935Z,28.13
2018-05-17T09:59:11.879Z,33.75
2018-05-17T10:00:11.827Z,39.38
2018-05-17T10:01:11.769Z,45.00
2018-05-17T10:02:11.713Z,50.63
2018-05-17T10:03:11.659Z,50.63
2018-05-17T10:04:11.602Z,45.00
2018-05-17T10:05:11.545Z,50.63
2018-05-17T10:06:11.492Z,50.63
2018-05-17T10:07:11.435Z,50.63
2018-05-17T10:08:11.385Z,50.63
2018-05-17T10:09:11.369Z,39.38
2018-05-17T10:10:11.268Z,33.75
2018-05-17T10:11:11.214Z,28.13
2018-05-17T10:12:11.159Z,28.13
2018-05-17T10:13:11.101Z,28.13
2018-05-17T10:14:11.049Z,28.13
2018-05-17T10:15:10.990Z,28.13
2018-05-17T10:16:10.934Z,28.13
2018-05-17T10:17:10.878Z,28.13
2018-05-17T10:18:10.824Z,33.75
2018-05-17T10:19:10.768Z,33.75
2018-05-17T10:20:10.712Z,28.13
2018-05-17T10:21:10.656Z,28.13
2018-05-17T10:22:10.601Z,28.13
2018-05-17T10:23:10.642Z,22.50
2018-05-17T10:24:10.493Z,22.50
2018-05-17T10:25:10.433Z,22.50
2018-05-17T10:26:10.379Z,28.13
2018-05-17T10:27:10.323Z,33.75
2018-05-17T10:28:10.266Z,33.75
2018-05-17T10:29:10.211Z,33.75
2018-05-17T10:30:10.157Z,39.38
2018-05-17T10:31:10.099Z,45.00
2018-05-17T10:32:10.043Z,50.63
2018-05-17T10:33:09.987Z,50.63
2018-05-17T10:34:09.930Z,56.25
2018-05-17T10:35:09.875Z,61.88
2018-05-17T10:36:09.820Z,67.50
2018-05-17T10:37:09.765Z,73.13
2018-05-17T10:38:09.709Z,84.38
2018-05-17T10:39:09.653Z,90.00
2018-05-17T10:40:09.598Z,95.63
2018-05-17T10:41:09.542Z,95.63
2018-05-17T10:42:09.492Z,90.00
2018-05-17T10:43:09.432Z,84.38
2018-05-17T10:44:09.375Z,78.75
2018-05-17T10:45:09.320Z,67.50
2018-05-17T10:46:09.264Z,56.25
2018-05-17T10:47:09.209Z,45.00
2018-05-17T10:48:09.153Z,39.38
2018-05-17T10:49:09.097Z,39.38
2018-05-17T10:50:09.041Z,33.75
2018-05-17T10:51:08.986Z,33.75
2018-05-17T10:52:08.931Z,33.75
2018-05-17T10:53:08.874Z,33.75
2018-05-17T10:54:08.823Z,33.75
2018-05-17T10:55:08.764Z,33.75
2018-05-17T10:56:08.709Z,33.75
2018-05-17T10:57:08.655Z,39.38
2018-05-17T10:58:08.598Z,45.00
2018-05-17T10:59:08.543Z,50.63
2018-05-17T11:00:08.489Z,45.00
2018-05-17T11:01:08.429Z,50.63
2018-05-17T11:02:08.374Z,50.63
2018-05-17T11:03:08.318Z,50.63
2018-05-17T11:04:08.263Z,50.63
2018-05-17T11:05:08.207Z,50.63
2018-05-17T11:06:08.155Z,50.63
2018-05-17T11:07:08.100Z,45.00
2018-05-17T11:08:08.041Z,50.63
2018-05-17T11:09:07.984Z,56.25
2018-05-17T11:10:07.929Z,56.25
2018-05-17T11:11:07.874Z,56.25
2018-05-17T11:12:07.887Z,56.25
2018-05-17T11:13:07.763Z,61.88
2018-05-17T11:14:07.705Z,56.25
2018-05-17T11:15:07.667Z,45.00
2018-05-17T11:16:07.599Z,45.00
2018-05-17T11:17:07.540Z,50.63
2018-05-17T11:18:07.485Z,45.00
2018-05-17T11:19:07.428Z,50.63
2018-05-17T11:20:07.375Z,50.63
2018-05-17T11:21:07.317Z,61.88
2018-05-17T11:22:07.261Z,73.13
2018-05-17T11:23:07.207Z,78.75
2018-05-17T11:24:07.153Z,84.38
2018-05-17T11:25:07.094Z,78.75
2018-05-17T11:26:07.038Z,61.88
2018-05-17T11:27:06.983Z,56.25
2018-05-17T11:28:06.928Z,61.88
2018-05-17T11:29:06.872Z,73.13
2018-05-17T11:30:06.817Z,73.13
2018-05-17T11:31:06.764Z,73.13
2018-05-17T11:32:06.706Z,84.38
2018-05-17T11:33:06.698Z,90.00
2018-05-17T11:34:06.596Z,95.63
2018-05-17T11:35:06.545Z,90.00
2018-05-17T11:36:06.484Z,95.63
2018-05-17T11:37:06.430Z,90.00
2018-05-17T11:38:06.372Z,84.38
2018-05-17T11:39:06.318Z,78.75
2018-05-17T11:40:06.261Z,78.75
2018-05-17T11:41:06.209Z,73.13
2018-05-17T11:42:06.158Z,67.50
2018-05-17T11:43:06.097Z,73.13
2018-05-17T11:44:06.072Z,78.75
2018-05-17T11:45:05.984Z,84.38
2018-05-17T11:46:05.928Z,78.75
2018-05-17T11:47:05.874Z,90.00
2018-05-17T11:48:05.822Z,90.00
2018-05-17T11:49:05.763Z,90.00
2018-05-17T11:50:05.707Z,95.63
2018-05-17T11:51:05.652Z,90.00
2018-05-17T11:52:05.598Z,90.00
2018-05-17T11:53:05.543Z,90.00
2018-05-17T11:54:05.488Z,84.38
2018-05-17T11:55:05.433Z,84.38
2018-05-17T11:56:05.378Z,78.75
2018-05-17T11:57:05.329Z,67.50
2018-05-17T11:58:05.265Z,67.50
2018-05-17T11:59:05.212Z,61.88
2018-05-17T12:00:05.157Z,61.88
2018-05-17T12:01:05.100Z,56.25
2018-05-17T12:02:05.045Z,61.88
2018-05-17T12:03:04.990Z,61.88
2018-05-17T12:04:04.937Z,56.25
2018-05-17T12:05:04.880Z,50.63
2018-05-17T12:06:04.824Z,50.63
2018-05-17T12:07:04.770Z,45.00
2018-05-17T12:08:04.714Z,45.00
2018-05-17T12:09:04.657Z,50.63
2018-05-17T12:10:04.602Z,50.63
2018-05-17T12:11:04.547Z,61.88
2018-05-17T12:12:04.492Z,61.88
2018-05-17T12:13:04.439Z,67.50
2018-05-17T12:14:04.387Z,61.88
2018-05-17T12:15:04.324Z,67.50
2018-05-17T12:16:04.277Z,61.88
2018-05-17T12:17:04.215Z,61.88
2018-05-17T12:18:04.159Z,50.63
2018-05-17T12:19:04.104Z,45.00
2018-05-17T12:20:04.049Z,50.63
2018-05-17T12:21:03.994Z,50.63
2018-05-17T12:22:03.938Z,56.25
2018-05-17T12:23:03.928Z,56.25
2018-05-17T12:24:03.829Z,56.25
2018-05-17T12:25:03.772Z,56.25
2018-05-17T12:26:03.722Z,56.25
2018-05-17T12:27:03.664Z,56.25
2018-05-17T12:28:03.609Z,56.25
2018-05-17T12:29:03.551Z,50.63
2018-05-17T12:30:03.497Z,50.63
2018-05-17T12:31:03.440Z,56.25
2018-05-17T12:32:03.477Z,61.88
2018-05-17T12:33:03.329Z,73.13
2018-05-17T12:34:03.275Z,78.75
2018-05-17T12:35:03.226Z,78.75
2018-05-17T12:36:03.170Z,73.13
2018-05-17T12:37:03.129Z,67.50
2018-05-17T12:38:03.054Z,73.13
2018-05-17T12:39:03.001Z,78.75
2018-05-17T12:40:02.945Z,78.75
2018-05-17T12:41:02.888Z,78.75
2018-05-17T12:42:02.832Z,78.75
2018-05-17T12:43:02.777Z,73.13
2018-05-17T12:44:02.722Z,61.88
2018-05-17T12:45:02.667Z,61.88
2018-05-17T12:46:02.612Z,61.88
2018-05-17T12:47:02.558Z,61.88
2018-05-17T12:48:02.504Z,67.50
2018-05-17T12:49:02.447Z,67.50
2018-05-17T12:50:02.392Z,61.88
2018-05-17T12:51:02.369Z,67.50
2018-05-17T12:52:02.282Z,73.13
2018-05-17T12:53:02.226Z,73.13
2018-05-17T12:54:02.171Z,78.75
2018-05-17T12:55:02.116Z,78.75
2018-05-17T12:56:02.061Z,84.38
2018-05-17T12:57:02.006Z,78.75
2018-05-17T12:58:01.969Z,78.75
2018-05-17T12:59:01.898Z,78.75
2018-05-17T13:00:01.841Z,84.38
2018-05-17T13:01:01.788Z,84.38
2018-05-17T13:02:01.734Z,84.38
2018-05-17T13:03:01.676Z,84.38
2018-05-17T13:04:01.627Z,73.13